Time;durP1;ratioP1;P1;durP2;ratioP2;P2;SDS_P1;SDS_P2;PMS_P1;PMS_P2;Temp;Humidity;BMP_temperature;BMP_pressure;BME280_temperature;BME280_humidity;BME280_pressure;Samples;Min_cycle;Max_cycle;Signal;HPM_P1;HPM_P2
2021/11/06 00:00:49;;;;;;;9.95;5.63;;;10.50;94.40;;;;;;5027933;28;20084;-53
2021/11/06 00:03:14;;;;;;;9.75;5.78;;;10.50;93.20;;;;;;5045612;28;20514;-52
2021/11/06 00:05:40;;;;;;;8.65;6.40;;;10.40;94.00;;;;;;5025927;28;20029;-51
2021/11/06 00:08:06;;;;;;;8.57;6.25;;;10.50;93.00;;;;;;5028318;28;20467;-51
2021/11/06 00:10:31;;;;;;;9.77;6.57;;;10.50;95.10;;;;;;5036047;28;20039;-51
2021/11/06 00:16:19;;;;;;;10.70;6.97;;;10.50;92.20;;;;;;5040654;28;20398;-54
2021/11/06 00:18:44;;;;;;;10.68;7.55;;;10.50;94.30;;;;;;5033248;28;20026;-51
2021/11/06 00:21:10;;;;;;;10.70;7.35;;;10.50;95.00;;;;;;5038659;28;20041;-53
2021/11/06 00:23:36;;;;;;;15.00;9.45;;;10.50;94.80;;;;;;5039570;28;20037;-53
2021/11/06 00:26:01;;;;;;;12.90;8.73;;;10.50;94.50;;;;;;5038867;28;20032;-51
2021/11/06 00:28:27;;;;;;;10.82;8.20;;;10.50;95.30;;;;;;5041912;28;20033;-54
2021/11/06 00:30:53;;;;;;;11.73;7.28;;;10.50;95.60;;;;;;5038445;28;20025;-51
2021/11/06 00:33:18;;;;;;;12.20;7.85;;;10.50;95.20;;;;;;5020172;28;20116;-54
2021/11/06 00:35:44;;;;;;;11.15;7.47;;;10.50;95.20;;;;;;5030138;28;20037;-51
2021/11/06 00:38:09;;;;;;;10.88;7.32;;;10.50;95.60;;;;;;5027387;28;20034;-56
2021/11/06 00:40:35;;;;;;;10.00;7.32;;;10.50;95.60;;;;;;5025271;28;20115;-56
2021/11/06 00:43:01;;;;;;;9.45;7.95;;;10.40;95.00;;;;;;5032843;28;20083;-56
2021/11/06 00:45:26;;;;;;;12.25;8.43;;;10.40;95.60;;;;;;5030437;28;20506;-55
2021/11/06 00:48:45;;;;;;;12.95;9.15;;;10.30;94.00;;;;;;5030958;28;20047;-54
2021/11/06 00:51:10;;;;;;;14.57;10.10;;;10.40;94.00;;;;;;5033156;28;20478;-55
2021/11/06 00:53:36;;;;;;;15.25;10.98;;;10.40;96.00;;;;;;5031244;28;20048;-52
2021/11/06 00:56:02;;;;;;;16.90;11.80;;;10.40;96.00;;;;;;5035856;28;20528;-57
2021/11/06 00:58:28;;;;;;;16.00;11.23;;;10.30;95.90;;;;;;5052965;28;20033;-55
2021/11/06 01:00:53;;;;;;;17.08;12.55;;;10.30;96.10;;;;;;5034312;28;20221;-57
2021/11/06 01:03:19;;;;;;;18.67;12.70;;;10.20;96.10;;;;;;5031541;28;20032;-57
2021/11/06 01:05:46;;;;;;;20.80;13.68;;;10.30;96.50;;;;;;5031484;28;20034;-56
2021/11/06 01:08:11;;;;;;;18.50;13.43;;;10.20;96.10;;;;;;5040134;28;20025;-55
2021/11/06 01:10:37;;;;;;;20.15;13.65;;;10.20;93.50;;;;;;5032372;28;20057;-58
2021/11/06 01:13:03;;;;;;;18.27;12.98;;;10.20;96.50;;;;;;5045715;28;20460;-56
2021/11/06 01:15:29;;;;;;;19.35;13.15;;;10.20;96.40;;;;;;5038445;28;20071;-57
2021/11/06 01:17:55;;;;;;;19.40;13.50;;;10.20;96.50;;;;;;5012984;28;20064;-57
2021/11/06 01:20:20;;;;;;;22.38;13.88;;;10.30;96.70;;;;;;5022773;28;20041;-57
2021/11/06 01:22:46;;;;;;;18.95;13.35;;;10.20;96.80;;;;;;5030987;28;20029;-57
2021/11/06 01:25:14;;;;;;;16.08;12.52;;;10.20;96.70;;;;;;5029762;28;20465;-56
2021/11/06 01:27:40;;;;;;;20.85;14.93;;;10.30;96.60;;;;;;5034115;28;20117;-54
2021/11/06 01:30:07;;;;;;;20.08;13.25;;;10.30;96.90;;;;;;5031339;28;20113;-56
2021/11/06 01:32:34;;;;;;;22.15;14.50;;;10.30;97.00;;;;;;5046419;28;20429;-57
2021/11/06 01:35:01;;;;;;;19.60;13.80;;;10.20;97.00;;;;;;5030772;28;20065;-55
2021/11/06 01:37:27;;;;;;;21.15;13.77;;;10.30;96.90;;;;;;5029554;28;20395;-55
2021/11/06 01:39:53;;;;;;;20.15;13.93;;;10.20;95.20;;;;;;5031547;28;20519;-55
2021/11/06 01:42:27;;;;;;;18.17;13.50;;;10.20;96.80;;;;;;5031597;28;20037;-57
2021/11/06 01:44:53;;;;;;;19.73;13.82;;;10.20;94.30;;;;;;5030858;28;20030;-55
2021/11/06 01:47:19;;;;;;;19.00;13.45;;;10.20;97.20;;;;;;5030624;28;20033;-58
2021/11/06 01:49:44;;;;;;;20.80;13.13;;;10.20;97.00;;;;;;5027725;28;20036;-57
2021/11/06 01:52:10;;;;;;;15.93;12.65;;;10.20;97.20;;;;;;5031464;28;20126;-57
2021/11/06 01:54:36;;;;;;;17.42;13.23;;;10.20;97.00;;;;;;5032593;28;20047;-57
2021/11/06 01:57:03;;;;;;;16.02;12.95;;;10.20;96.30;;;;;;5028337;28;20037;-57
2021/11/06 01:59:29;;;;;;;16.08;12.65;;;10.20;97.10;;;;;;5025750;28;20483;-56
2021/11/06 02:01:58;;;;;;;16.05;13.07;;;10.20;96.70;;;;;;5033704;28;20041;-57
2021/11/06 02:04:32;;;;;;;18.52;12.63;;;10.10;96.80;;;;;;5034387;28;20489;-57
2021/11/06 02:06:58;;;;;;;;;;;10.20;96.80;;;;;;5039595;28;20502;-57
2021/11/06 02:09:24;;;;;;;16.63;12.77;;;10.10;95.60;;;;;;5033765;28;19909;-58
2021/11/06 02:11:50;;;;;;;21.88;13.02;;;10.10;98.10;;;;;;5036207;28;20100;-57
2021/11/06 02:14:15;;;;;;;14.75;12.10;;;10.10;98.40;;;;;;5039111;28;20078;-57
2021/11/06 02:16:41;;;;;;;17.70;13.10;;;10.10;99.20;;;;;;5035672;28;20502;-56
2021/11/06 02:19:07;;;;;;;18.63;13.15;;;10.10;99.60;;;;;;5034505;28;20021;-55
2021/11/06 02:21:36;;;;;;;17.42;12.25;;;10.00;98.90;;;;;;5035622;28;20387;-57
2021/11/06 02:24:03;;;;;;;24.02;13.57;;;10.10;99.60;;;;;;5034404;28;20025;-57
2021/11/06 02:26:31;;;;;;;17.42;12.70;;;10.10;98.10;;;;;;5035739;28;20030;-53
2021/11/06 02:28:59;;;;;;;17.63;11.70;;;10.10;99.80;;;;;;5038263;28;20499;-53
2021/11/06 02:31:25;;;;;;;16.15;11.55;;;10.10;99.50;;;;;;5055451;28;20377;-53
2021/11/06 02:33:51;;;;;;;14.15;12.32;;;10.10;99.90;;;;;;5028952;28;20030;-53
2021/11/06 02:36:18;;;;;;;16.60;11.85;;;10.10;99.90;;;;;;5033492;28;20029;-53
2021/11/06 02:38:45;;;;;;;16.10;11.98;;;10.10;99.90;;;;;;5034599;28;20037;-55
2021/11/06 02:41:11;;;;;;;16.52;11.63;;;10.10;99.90;;;;;;5034568;28;20108;-54
2021/11/06 02:43:37;;;;;;;15.77;11.73;;;10.00;99.90;;;;;;5042767;28;20382;-54
2021/11/06 02:46:02;;;;;;;16.27;11.52;;;10.00;99.90;;;;;;5042183;28;20032;-52
2021/11/06 02:48:28;;;;;;;17.25;10.82;;;10.00;99.90;;;;;;5034589;28;20419;-54
2021/11/06 02:50:54;;;;;;;13.05;10.15;;;;;;;;;;5034731;28;20124;-54
2021/11/06 02:53:20;;;;;;;11.88;9.77;;;;;;;;;;5033577;28;20021;-54
2021/11/06 02:55:47;;;;;;;14.27;10.18;;;;;;;;;;5051085;28;20037;-56
2021/11/06 02:58:14;;;;;;;15.13;9.05;;;;;;;;;;5017917;28;20033;-53
2021/11/06 03:03:45;;;;;;;13.07;9.45;;;9.90;97.90;;;;;;5024709;28;20032;-52
2021/11/06 03:06:11;;;;;;;13.23;8.60;;;9.90;97.20;;;;;;5033975;28;20475;-52
2021/11/06 03:08:37;;;;;;;11.35;8.10;;;9.90;98.30;;;;;;5047387;28;20609;-54
2021/11/06 03:11:03;;;;;;;11.80;8.68;;;9.90;99.90;;;;;;5033701;28;20048;-53
2021/11/06 03:13:30;;;;;;;11.00;8.27;;;9.90;96.40;;;;;;5036469;28;20075;-54
2021/11/06 03:15:55;;;;;;;9.63;8.20;;;9.90;97.10;;;;;;5033417;28;20029;-52
2021/11/06 03:18:21;;;;;;;10.85;8.70;;;9.90;96.90;;;;;;5032152;28;20028;-54
2021/11/06 03:20:48;;;;;;;10.90;7.95;;;9.90;97.60;;;;;;5033103;28;20132;-50
2021/11/06 03:23:14;;;;;;;10.85;8.30;;;9.80;96.90;;;;;;5036394;28;20470;-56
2021/11/06 03:25:40;;;;;;;9.05;7.28;;;9.80;97.60;;;;;;5054597;28;20033;-56
2021/11/06 03:28:06;;;;;;;10.18;7.50;;;9.80;94.40;;;;;;5049384;28;20532;-52
2021/11/06 03:30:31;;;;;;;11.13;8.52;;;9.90;95.60;;;;;;5033089;28;20028;-53
2021/11/06 03:32:57;;;;;;;11.95;7.03;;;9.80;95.80;;;;;;5032615;28;20037;-53
2021/11/06 03:35:23;;;;;;;9.02;6.93;;;9.70;96.20;;;;;;5020063;28;20036;-55
2021/11/06 03:37:52;;;;;;;8.25;5.90;;;9.70;97.70;;;;;;5031697;28;20167;-52
2021/11/06 03:40:19;;;;;;;8.13;5.55;;;9.70;98.20;;;;;;5030845;28;20056;-53
2021/11/06 03:42:47;;;;;;;7.45;5.38;;;9.70;98.70;;;;;;5020680;28;20105;-53
2021/11/06 03:45:13;;;;;;;7.43;4.72;;;;;;;;;;5029165;28;20076;-54
2021/11/06 03:47:39;;;;;;;5.80;4.85;;;;;;;;;;5014121;28;20108;-53
2021/11/06 03:50:07;;;;;;;9.15;5.65;;;;;;;;;;5028586;28;20376;-54
2021/11/06 03:52:33;;;;;;;7.90;5.22;;;;;;;;;;5033654;28;20022;-54
2021/11/06 03:54:59;;;;;;;7.68;5.10;;;;;;;;;;5041904;28;20100;-55
2021/11/06 03:57:25;;;;;;;8.07;5.45;;;;;;;;;;5046803;28;20033;-52
2021/11/06 03:59:51;;;;;;;8.68;4.65;;;;;;;;;;5030889;28;20021;-56
2021/11/06 04:02:18;;;;;;;6.95;5.40;;;;;;;;;;5016607;28;20038;-54
2021/11/06 04:04:44;;;;;;;9.02;5.38;;;;;;;;;;5028221;28;20068;-53
2021/11/06 04:07:10;;;;;;;6.70;5.13;;;;;;;;;;5035251;28;20029;-54
2021/11/06 04:09:36;;;;;;;6.47;5.03;;;;;;;;;;5031538;28;20029;-56
2021/11/06 04:12:02;;;;;;;8.52;4.95;;;;;;;;;;5033495;28;20032;-52
2021/11/06 04:14:28;;;;;;;6.50;5.43;;;;;;;;;;5033159;28;20033;-51
2021/11/06 04:16:56;;;;;;;6.40;4.90;;;9.30;97.60;;;;;;5029977;28;20033;-55
2021/11/06 04:19:22;;;;;;;5.30;4.80;;;9.30;93.80;;;;;;5033214;28;20124;-51
2021/11/06 04:21:48;;;;;;;6.45;4.43;;;9.40;78.50;;;;;;5035870;28;20088;-54
2021/11/06 04:24:14;;;;;;;6.47;4.43;;;;;;;;;;5034870;28;20029;-50
2021/11/06 04:26:40;;;;;;;5.35;4.50;;;;;;;;;;5053110;28;20036;-54
2021/11/06 04:29:05;;;;;;;5.03;4.25;;;9.30;90.20;;;;;;5043592;28;20026;-55
2021/11/06 04:31:31;;;;;;;7.82;4.05;;;9.40;91.40;;;;;;5034238;28;20099;-51
2021/11/06 04:33:57;;;;;;;4.70;3.88;;;9.40;90.50;;;;;;5031648;28;20502;-56
2021/11/06 04:36:23;;;;;;;4.47;3.80;;;9.40;82.40;;;;;;5036903;28;20117;-54
2021/11/06 04:38:48;;;;;;;4.87;3.37;;;9.30;76.20;;;;;;5031524;28;20041;-54
2021/11/06 04:41:15;;;;;;;4.57;3.00;;;9.30;78.30;;;;;;5031769;28;20590;-53
2021/11/06 04:43:41;;;;;;;3.70;3.30;;;;;;;;;;5032804;28;20125;-54
2021/11/06 04:46:07;;;;;;;5.35;3.78;;;9.10;71.30;;;;;;5031549;28;20040;-53
2021/11/06 04:48:32;;;;;;;6.43;3.20;;;9.10;71.10;;;;;;5032072;28;20383;-53
2021/11/06 04:50:58;;;;;;;6.43;3.63;;;9.10;71.90;;;;;;5033994;28;20049;-54
2021/11/06 04:53:24;;;;;;;4.38;3.30;;;9.10;69.60;;;;;;5032244;28;20479;-53
2021/11/06 04:55:49;;;;;;;5.03;3.00;;;9.10;71.80;;;;;;5046837;28;20035;-55
2021/11/06 04:58:15;;;;;;;3.83;2.97;;;9.10;71.30;;;;;;5047668;28;20113;-52
2021/11/06 05:00:50;;;;;;;3.72;2.92;;;9.10;71.70;;;;;;5037343;28;20037;-56
2021/11/06 05:03:16;;;;;;;3.10;2.78;;;9.10;69.20;;;;;;5031638;28;20080;-52
2021/11/06 05:05:42;;;;;;;3.55;2.83;;;9.10;72.30;;;;;;5038369;28;20025;-52
2021/11/06 05:08:14;;;;;;;5.18;3.42;;;9.10;72.70;;;;;;5022390;28;20126;-52
2021/11/06 05:10:39;;;;;;;3.53;3.10;;;9.10;69.80;;;;;;5024215;28;20499;-56
2021/11/06 05:13:06;;;;;;;7.00;3.17;;;9.10;72.70;;;;;;5030330;28;20053;-56
2021/11/06 05:15:32;;;;;;;4.47;3.10;;;9.20;70.90;;;;;;5023364;28;20032;-53
2021/11/06 05:17:58;;;;;;;4.03;3.30;;;9.20;72.90;;;;;;5030868;28;20014;-56
2021/11/06 05:20:24;;;;;;;3.67;3.20;;;9.20;73.20;;;;;;5024983;28;20037;-54
2021/11/06 05:22:49;;;;;;;5.83;3.43;;;9.20;72.90;;;;;;5028017;28;20057;-55
2021/11/06 05:25:15;;;;;;;4.83;3.13;;;9.10;73.60;;;;;;5031579;28;20025;-53
2021/11/06 05:27:41;;;;;;;5.00;2.83;;;9.10;74.00;;;;;;5036325;28;20033;-55
2021/11/06 05:30:10;;;;;;;3.10;2.70;;;9.10;73.40;;;;;;5049233;28;20029;-51
2021/11/06 05:32:37;;;;;;;3.17;2.58;;;9.10;71.10;;;;;;5028600;28;20111;-53
2021/11/06 05:35:04;;;;;;;2.80;2.35;;;9.20;72.20;;;;;;5041818;28;20079;-55
2021/11/06 05:37:30;;;;;;;3.03;2.42;;;9.10;72.80;;;;;;5029371;28;20026;-54
2021/11/06 05:39:56;;;;;;;3.15;2.40;;;9.20;73.10;;;;;;5035065;28;20050;-54
2021/11/06 05:42:22;;;;;;;3.83;1.80;;;9.10;70.50;;;;;;5035923;28;20131;-56
2021/11/06 05:44:48;;;;;;;3.78;2.10;;;9.10;72.40;;;;;;5034769;28;20030;-52
2021/11/06 05:47:13;;;;;;;4.93;2.40;;;9.20;72.40;;;;;;5035964;28;20089;-52
2021/11/06 05:49:48;;;;;;;2.40;1.70;;;9.20;72.60;;;;;;5054928;28;20103;-52
2021/11/06 05:52:14;;;;;;;;;;;9.20;69.60;;;;;;5043766;28;20530;-54
2021/11/06 05:54:40;;;;;;;2.40;2.00;;;9.20;66.10;;;;;;5037445;28;19913;-51
2021/11/06 05:57:43;;;;;;;3.03;1.95;;;9.10;72.80;;;;;;5034917;28;20029;-53
2021/11/06 06:00:12;;;;;;;3.45;2.25;;;9.10;67.50;;;;;;5034434;28;20101;-54
2021/11/06 06:02:38;;;;;;;2.53;1.90;;;9.20;72.90;;;;;;5033295;28;20163;-52
2021/11/06 06:05:05;;;;;;;2.63;1.90;;;9.10;72.80;;;;;;5022530;28;20065;-56
2021/11/06 06:07:30;;;;;;;2.50;1.70;;;9.10;72.30;;;;;;5033801;28;20433;-51
2021/11/06 06:09:56;;;;;;;2.03;1.60;;;9.10;72.50;;;;;;5034614;28;20036;-51
2021/11/06 06:12:22;;;;;;;3.07;1.90;;;9.20;70.50;;;;;;5035113;28;20481;-56
2021/11/06 06:14:47;;;;;;;3.30;1.95;;;9.20;71.40;;;;;;5034287;28;20045;-51
2021/11/06 06:17:13;;;;;;;4.57;1.80;;;9.10;71.50;;;;;;5034807;28;20018;-52
2021/11/06 06:19:39;;;;;;;3.63;1.88;;;9.10;71.50;;;;;;5047195;28;20195;-54
2021/11/06 06:22:05;;;;;;;4.07;2.10;;;9.10;71.50;;;;;;5034862;28;20069;-51
2021/11/06 06:24:30;;;;;;;2.75;2.20;;;9.10;71.40;;;;;;5041304;28;20360;-55
2021/11/06 06:26:56;;;;;;;2.53;1.85;;;9.20;72.30;;;;;;5035224;28;20068;-51
2021/11/06 06:29:22;;;;;;;3.55;1.83;;;9.00;69.70;;;;;;5044327;28;20025;-52
2021/11/06 06:31:47;;;;;;;3.73;1.80;;;9.10;71.30;;;;;;5038743;28;20070;-56
2021/11/06 06:34:14;;;;;;;3.53;1.77;;;9.10;70.90;;;;;;5033284;28;20032;-51
2021/11/06 06:36:40;;;;;;;5.40;2.45;;;9.10;70.80;;;;;;5048303;28;20030;-54
2021/11/06 06:39:05;;;;;;;3.63;1.87;;;9.10;70.10;;;;;;5033945;28;20052;-50
2021/11/06 06:41:31;;;;;;;5.00;2.23;;;9.10;69.20;;;;;;5034380;28;20084;-51
2021/11/06 06:43:58;;;;;;;3.83;2.30;;;9.10;69.40;;;;;;5037342;28;20021;-56
2021/11/06 06:46:23;;;;;;;3.28;2.33;;;9.00;70.50;;;;;;5034395;28;20037;-54
2021/11/06 06:48:49;;;;;;;5.13;2.70;;;9.10;71.00;;;;;;5038146;28;20035;-55
2021/11/06 06:51:15;;;;;;;4.50;2.60;;;9.00;60.20;;;;;;5034566;28;20091;-55
2021/11/06 06:53:42;;;;;;;3.83;2.20;;;8.90;69.10;;;;;;5037369;28;20033;-54
2021/11/06 06:56:08;;;;;;;7.23;2.40;;;8.90;68.30;;;;;;5043792;28;20033;-54
2021/11/06 06:58:33;;;;;;;4.40;2.60;;;9.00;70.80;;;;;;5034145;28;20037;-53
2021/11/06 07:00:59;;;;;;;4.40;3.00;;;9.00;68.60;;;;;;5033436;28;20037;-56
2021/11/06 07:03:25;;;;;;;5.97;2.80;;;8.90;71.20;;;;;;5032723;28;20029;-52
2021/11/06 07:05:50;;;;;;;4.17;2.80;;;8.90;70.80;;;;;;5054850;28;20048;-53
2021/11/06 07:08:16;;;;;;;5.00;3.07;;;9.00;72.40;;;;;;5033827;28;20021;-54
2021/11/06 07:10:42;;;;;;;5.33;2.83;;;9.10;72.30;;;;;;5033622;28;20036;-52
2021/11/06 07:13:08;;;;;;;6.33;3.20;;;9.10;71.60;;;;;;5031872;28;20029;-56
2021/11/06 07:15:33;;;;;;;4.67;3.20;;;9.10;71.80;;;;;;5032777;28;20113;-53
2021/11/06 07:18:02;;;;;;;3.53;2.70;;;9.10;71.20;;;;;;5034109;28;20029;-55
2021/11/06 07:20:28;;;;;;;7.37;3.20;;;9.10;69.60;;;;;;5032251;28;20403;-56
2021/11/06 07:22:54;;;;;;;6.80;2.80;;;9.10;70.00;;;;;;5033593;28;20029;-50
2021/11/06 07:25:20;;;;;;;6.43;3.40;;;9.20;71.70;;;;;;5032238;28;20022;-56
2021/11/06 07:27:46;;;;;;;6.55;3.97;;;9.20;70.10;;;;;;5029347;28;20130;-53
2021/11/06 07:30:12;;;;;;;8.10;3.67;;;9.30;71.00;;;;;;5036557;28;20061;-51
2021/11/06 07:32:38;;;;;;;7.53;4.20;;;9.30;70.70;;;;;;5037385;28;20091;-51
2021/11/06 07:35:04;;;;;;;10.93;3.13;;;9.40;70.00;;;;;;5039589;28;20029;-52
2021/11/06 07:37:32;;;;;;;6.33;2.67;;;9.50;70.90;;;;;;5032686;28;20038;-54
2021/11/06 07:39:58;;;;;;;4.75;2.58;;;9.40;62.00;;;;;;5032666;28;20047;-53
2021/11/06 07:42:25;;;;;;;6.07;2.50;;;9.50;70.50;;;;;;5032947;28;20041;-52
2021/11/06 07:44:51;;;;;;;7.20;2.70;;;9.50;70.90;;;;;;5045847;28;20033;-55
2021/11/06 07:47:16;;;;;;;5.25;2.97;;;9.50;68.50;;;;;;5032231;28;20037;-53
2021/11/06 07:49:42;;;;;;;5.20;2.60;;;9.60;71.00;;;;;;5038348;28;20069;-53
2021/11/06 07:52:08;;;;;;;5.17;3.07;;;9.70;71.40;;;;;;5047232;28;20030;-55
2021/11/06 07:54:34;;;;;;;5.00;2.90;;;9.60;70.00;;;;;;5032667;28;20029;-53
2021/11/06 07:56:59;;;;;;;7.30;2.97;;;9.60;68.70;;;;;;5031236;28;20032;-56
2021/11/06 07:59:30;;;;;;;3.50;2.63;;;9.60;69.20;;;;;;5022488;28;20021;-54
2021/11/06 08:01:59;;;;;;;6.07;2.60;;;9.70;65.80;;;;;;5032592;28;20030;-53
2021/11/06 08:04:24;;;;;;;4.38;2.22;;;9.70;69.50;;;;;;5032131;28;20473;-57
2021/11/06 08:06:50;;;;;;;9.13;3.00;;;9.70;69.10;;;;;;5031613;28;20032;-55
2021/11/06 08:09:16;;;;;;;4.32;3.40;;;9.80;68.30;;;;;;5035415;28;20482;-54
2021/11/06 08:11:41;;;;;;;8.15;3.58;;;9.80;69.20;;;;;;5033252;28;20033;-54
2021/11/06 08:14:07;;;;;;;7.20;4.45;;;9.80;65.90;;;;;;5034677;28;20102;-52
2021/11/06 08:16:33;;;;;;;5.65;3.55;;;9.80;59.30;;;;;;5032366;28;20033;-55
2021/11/06 08:18:58;;;;;;;5.43;4.03;;;9.90;67.80;;;;;;5046739;28;20029;-51
2021/11/06 08:21:24;;;;;;;7.78;4.13;;;9.90;54.60;;;;;;5029098;28;20029;-55
2021/11/06 08:23:49;;;;;;;5.93;4.55;;;9.90;67.40;;;;;;5027511;28;20048;-52
2021/11/06 08:26:15;;;;;;;7.15;4.55;;;10.00;63.60;;;;;;5026842;28;20026;-56
2021/11/06 08:28:41;;;;;;;5.82;4.75;;;10.10;64.70;;;;;;5027694;28;20147;-53
2021/11/06 08:31:06;;;;;;;7.72;4.45;;;10.10;65.30;;;;;;5021794;28;20083;-50
2021/11/06 08:33:32;;;;;;;6.35;4.15;;;10.10;59.10;;;;;;5029234;28;20175;-55
2021/11/06 08:35:59;;;;;;;7.43;4.60;;;10.20;66.40;;;;;;5022040;28;20021;-56
2021/11/06 08:38:29;;;;;;;9.90;4.50;;;10.20;65.00;;;;;;5035161;28;20049;-51
2021/11/06 08:40:55;;;;;;;7.68;4.18;;;10.20;58.70;;;;;;5024523;28;20385;-55
2021/11/06 08:43:21;;;;;;;5.65;4.10;;;10.20;67.40;;;;;;5034818;28;20040;-52
2021/11/06 08:45:47;;;;;;;5.47;3.00;;;10.30;67.60;;;;;;5032685;28;20042;-55
2021/11/06 08:48:14;;;;;;;13.63;4.13;;;10.30;60.90;;;;;;5046747;28;20032;-53
2021/11/06 08:50:40;;;;;;;7.40;3.67;;;10.40;59.80;;;;;;5023520;28;20437;-54
2021/11/06 08:53:06;;;;;;;5.03;3.63;;;10.40;57.00;;;;;;5027496;28;20065;-55
2021/11/06 08:55:32;;;;;;;4.35;3.33;;;10.50;64.20;;;;;;5031497;28;20040;-52
2021/11/06 08:57:58;;;;;;;4.78;3.47;;;10.50;66.80;;;;;;5032015;28;20034;-52
2021/11/06 09:00:35;;;;;;;5.15;3.38;;;10.50;63.20;;;;;;5018962;28;20025;-56
2021/11/06 09:03:08;;;;;;;5.07;3.72;;;10.50;64.50;;;;;;5030876;28;20040;-51
2021/11/06 09:05:34;;;;;;;6.50;3.90;;;10.50;63.80;;;;;;5032048;28;20030;-52
2021/11/06 09:08:01;;;;;;;6.63;3.65;;;10.60;65.20;;;;;;5025721;28;20087;-52
2021/11/06 09:10:27;;;;;;;7.30;4.00;;;10.60;62.90;;;;;;5038726;28;20053;-51
2021/11/06 09:12:54;;;;;;;7.60;3.55;;;10.60;62.90;;;;;;5035688;28;20032;-50
2021/11/06 09:15:20;;;;;;;3.40;3.10;;;10.70;63.80;;;;;;5036151;28;20060;-51
2021/11/06 09:17:46;;;;;;;5.90;3.67;;;10.70;61.70;;;;;;5040399;28;20366;-51
2021/11/06 09:20:12;;;;;;;3.17;2.85;;;10.80;64.80;;;;;;5032311;28;20033;-52
2021/11/06 09:22:39;;;;;;;4.43;2.90;;;10.80;57.50;;;;;;5034256;28;20049;-51
2021/11/06 09:25:05;;;;;;;4.85;3.08;;;10.90;57.50;;;;;;5036425;28;20104;-53
2021/11/06 09:27:46;;;;;;;6.55;3.20;;;10.90;59.60;;;;;;5033676;28;20475;-54
2021/11/06 09:30:12;;;;;;;4.45;3.30;;;11.10;50.60;;;;;;5029355;28;20067;-56
2021/11/06 09:32:38;;;;;;;4.03;2.83;;;11.00;61.30;;;;;;5046065;28;20454;-53
2021/11/06 09:35:05;;;;;;;3.60;2.63;;;11.10;57.60;;;;;;5036521;28;20108;-54
2021/11/06 09:37:30;;;;;;;4.38;2.63;;;11.10;59.70;;;;;;5043623;28;20478;-51
2021/11/06 09:39:56;;;;;;;4.57;3.03;;;11.10;61.30;;;;;;5037790;28;20057;-50
2021/11/06 09:42:22;;;;;;;5.05;2.88;;;11.10;48.90;;;;;;5030557;28;20041;-49
2021/11/06 09:44:52;;;;;;;7.97;3.10;;;11.10;58.80;;;;;;5035250;28;20040;-48
2021/11/06 09:47:19;;;;;;;3.85;3.28;;;11.20;55.40;;;;;;5035033;28;20384;-49
2021/11/06 09:49:45;;;;;;;7.15;3.30;;;11.30;54.60;;;;;;5023483;28;20051;-51
2021/11/06 09:52:11;;;;;;;6.18;3.50;;;11.50;53.30;;;;;;5034126;28;20047;-51
2021/11/06 09:54:39;;;;;;;3.60;3.30;;;11.50;58.70;;;;;;5034204;28;20390;-49
2021/11/06 09:57:05;;;;;;;4.93;4.10;;;11.50;48.80;;;;;;5034317;28;20558;-49
2021/11/06 09:59:31;;;;;;;4.47;3.83;;;11.40;55.40;;;;;;5036077;28;20144;-49
2021/11/06 10:01:57;;;;;;;6.43;4.38;;;11.50;50.90;;;;;;5034193;28;20033;-50
2021/11/06 10:04:25;;;;;;;5.70;3.65;;;11.60;55.90;;;;;;5035895;28;20026;-49
2021/11/06 10:06:51;;;;;;;5.40;3.50;;;11.60;52.00;;;;;;5031584;28;20036;-50
2021/11/06 10:09:17;;;;;;;5.63;3.83;;;11.60;53.40;;;;;;5035426;28;20037;-50
2021/11/06 10:11:55;;;;;;;5.93;3.65;;;11.80;55.80;;;;;;5035484;28;20391;-50
2021/11/06 10:14:23;;;;;;;5.53;3.72;;;11.80;51.70;;;;;;5039038;28;20026;-53
2021/11/06 10:16:58;;;;;;;7.10;3.35;;;11.80;50.10;;;;;;5034164;28;20032;-50
2021/11/06 10:19:49;;;;;;;7.60;3.58;;;11.90;57.80;;;;;;5034269;28;20132;-49
2021/11/06 10:22:25;;;;;;;5.22;3.17;;;11.90;56.50;;;;;;5034867;28;20056;-49
2021/11/06 10:24:59;;;;;;;5.90;3.70;;;11.90;54.80;;;;;;5038491;28;20463;-49
2021/11/06 10:27:26;;;;;;;4.78;3.35;;;12.10;51.30;;;;;;5028860;28;20571;-49
2021/11/06 10:30:12;;;;;;;4.80;3.72;;;12.10;57.70;;;;;;5022143;28;20083;-49
2021/11/06 10:32:43;;;;;;;4.65;3.42;;;12.20;52.10;;;;;;5037460;28;20034;-50
2021/11/06 10:35:20;;;;;;;7.97;2.95;;;12.20;56.10;;;;;;5035593;28;20026;-49
2021/11/06 10:37:48;;;;;;;4.22;3.10;;;12.30;50.10;;;;;;5034653;28;20078;-49
2021/11/06 10:40:19;;;;;;;4.00;2.92;;;12.40;49.80;;;;;;5034595;28;20048;-50
2021/11/06 10:42:49;;;;;;;2.83;2.22;;;12.40;57.10;;;;;;5038043;28;20521;-48
2021/11/06 10:45:17;;;;;;;3.35;2.10;;;12.40;49.90;;;;;;5035185;28;20026;-49
2021/11/06 10:47:49;;;;;;;3.00;2.30;;;12.40;52.80;;;;;;5034337;28;20044;-48
2021/11/06 10:50:15;;;;;;;4.22;3.13;;;12.40;53.60;;;;;;5034523;28;20022;-51
2021/11/06 10:52:46;;;;;;;4.53;2.72;;;12.40;46.10;;;;;;5033438;28;20025;-49
2021/11/06 10:55:13;;;;;;;3.17;2.60;;;12.40;54.70;;;;;;5032979;28;20483;-54
2021/11/06 10:57:39;;;;;;;6.28;2.83;;;12.40;55.00;;;;;;5034326;28;20110;-49
2021/11/06 11:00:10;;;;;;;5.32;3.03;;;12.50;49.90;;;;;;5033027;28;20049;-53
2021/11/06 11:02:37;;;;;;;4.47;3.22;;;12.50;47.10;;;;;;5038861;28;20131;-50
2021/11/06 11:05:03;;;;;;;3.70;2.40;;;12.70;56.40;;;;;;5054946;28;20021;-51
2021/11/06 11:07:29;;;;;;;3.10;2.88;;;12.60;56.10;;;;;;5050089;28;20455;-51
2021/11/06 11:09:54;;;;;;;4.35;3.00;;;12.60;57.20;;;;;;5043162;28;20120;-51
2021/11/06 11:12:20;;;;;;;3.30;2.72;;;12.60;54.40;;;;;;5036491;28;20049;-51
2021/11/06 11:14:53;;;;;;;4.85;2.88;;;12.70;55.80;;;;;;5040752;28;20043;-51
2021/11/06 11:17:19;;;;;;;6.15;2.97;;;12.80;49.90;;;;;;5035396;28;20037;-50
2021/11/06 11:19:47;;;;;;;2.42;2.20;;;12.80;50.70;;;;;;5036702;28;20017;-51
2021/11/06 11:22:29;;;;;;;5.68;3.17;;;12.80;53.80;;;;;;5042278;28;20064;-53
2021/11/06 11:24:56;;;;;;;6.32;3.15;;;12.90;47.50;;;;;;5032963;28;20034;-52
2021/11/06 11:27:22;;;;;;;6.30;2.60;;;12.80;49.70;;;;;;5034852;28;20418;-50
2021/11/06 11:29:48;;;;;;;4.78;2.90;;;12.80;48.20;;;;;;5049318;28;20029;-51
2021/11/06 11:32:16;;;;;;;4.03;2.35;;;12.80;55.00;;;;;;5032700;28;20049;-51
2021/11/06 11:34:44;;;;;;;3.88;2.50;;;12.80;56.20;;;;;;5032216;28;20109;-51
2021/11/06 11:37:10;;;;;;;5.10;2.50;;;12.90;51.10;;;;;;5033166;28;20029;-51
2021/11/06 11:39:37;;;;;;;4.03;2.75;;;13.00;48.80;;;;;;5014643;28;20407;-51
2021/11/06 11:42:11;;;;;;;3.63;2.60;;;13.00;53.50;;;;;;5033352;28;20033;-49
2021/11/06 11:44:56;;;;;;;;;;;13.10;52.50;;;;;;5025929;28;20028;-51
2021/11/06 11:47:42;;;;;;;4.60;2.90;;;13.00;47.40;;;;;;5034061;28;19987;-49
2021/11/06 11:50:15;;;;;;;3.78;2.53;;;13.10;48.80;;;;;;5048347;28;20106;-49
2021/11/06 11:52:48;;;;;;;3.30;2.65;;;13.00;54.00;;;;;;5032962;28;20040;-49
2021/11/06 11:55:41;;;;;;;2.78;2.30;;;13.20;50.40;;;;;;5032991;28;20056;-52
2021/11/06 11:58:15;;;;;;;3.97;2.90;;;13.10;50.40;;;;;;5019594;28;20038;-51
2021/11/06 12:00:41;;;;;;;;;;;13.20;51.50;;;;;;5031263;28;20063;-51
2021/11/06 12:03:07;;;;;;;4.63;3.00;;;13.20;47.10;;;;;;5032683;28;19913;-50
2021/11/06 12:05:44;;;;;;;5.15;3.20;;;13.10;54.10;;;;;;5032479;28;20490;-51
2021/11/06 12:08:09;;;;;;;5.07;3.50;;;13.20;55.60;;;;;;5031415;28;20033;-52
2021/11/06 12:10:40;;;;;;;4.72;4.00;;;13.20;55.40;;;;;;5031768;28;20025;-55
2021/11/06 12:13:26;;;;;;;5.45;3.30;;;13.30;46.90;;;;;;5033887;28;20482;-51
2021/11/06 12:15:57;;;;;;;3.38;2.95;;;13.30;54.90;;;;;;5033676;28;20112;-53
2021/11/06 12:18:35;;;;;;;3.50;3.00;;;13.40;52.00;;;;;;5032331;28;20390;-50
2021/11/06 12:21:16;;;;;;;3.00;2.53;;;13.50;47.10;;;;;;5042836;28;20064;-55
2021/11/06 12:23:42;;;;;;;4.90;2.28;;;13.50;51.00;;;;;;5025379;28;20084;-53
2021/11/06 12:26:13;;;;;;;3.53;2.58;;;13.50;55.40;;;;;;5028980;28;20038;-53
2021/11/06 12:28:41;;;;;;;4.35;2.95;;;13.60;49.70;;;;;;5037529;28;20036;-51
2021/11/06 12:31:28;;;;;;;4.90;3.58;;;13.60;59.60;;;;;;5039171;28;20446;-50
2021/11/06 12:38:10;;;;;;;4.07;2.90;;;;;;;;;;5025983;28;20510;-52
2021/11/06 12:40:47;;;;;;;4.32;3.05;;;;;;;;;;5038932;28;20057;-52
2021/11/06 12:43:18;;;;;;;4.07;3.13;;;13.40;71.30;;;;;;5033463;28;20037;-53
2021/11/06 12:45:46;;;;;;;5.47;3.08;;;;;;;;;;5033301;28;20033;-50
2021/11/06 12:48:17;;;;;;;7.53;3.42;;;13.60;69.10;;;;;;5031636;28;20025;-51
2021/11/06 12:50:48;;;;;;;5.35;3.10;;;13.80;71.20;;;;;;5031853;28;20030;-51
2021/11/06 12:53:31;;;;;;;4.22;2.70;;;13.80;70.30;;;;;;5030010;28;20025;-52
2021/11/06 12:56:07;;;;;;;3.63;2.75;;;13.70;56.80;;;;;;5047792;28;20034;-50
2021/11/06 12:58:34;;;;;;;3.45;3.15;;;13.70;54.00;;;;;;5031638;28;20021;-52
2021/11/06 13:01:21;;;;;;;3.65;2.63;;;13.60;59.70;;;;;;5018697;28;20041;-51
2021/11/06 13:03:48;;;;;;;3.33;2.72;;;13.70;50.90;;;;;;5031279;28;20052;-51
2021/11/06 13:06:25;;;;;;;3.80;3.10;;;13.70;57.00;;;;;;5032365;28;20021;-50
2021/11/06 13:09:17;;;;;;;5.72;3.28;;;13.70;49.30;;;;;;5030268;28;20112;-51